イカルイト の空港の天気 - METARとTAF

イカルイト空港 ( CYFB / YFB ) - カナダ ヌナブト準州イカルイト
飛行場実況気象(Metar)
観測時間10/21 11:00 EDT (10/21 15:00 UTC)
風向・風速南 3m/s
視程10km以上
天気現象
全天の8割程度の雲 雲底高度 1070m
全天の8割程度の雲 雲底高度 2190m
気温0℃
湿度69%
気圧1012.9hPa
METARCYFB 211500Z 17005KT 30SM BKN035 BKN072 M00/M05 A2990 RMK SC5AC2 SLP129
過去の天気等 Google飛行場航空写真 Wunderground天気予報

過去48時間のMETAR

飛行場予報(TAF)
発表時間: 10/21 07:38 EDT (10/21 11:38 UTC)
予報対象時間: 21日8時 EDT ~ 22日8時 EDT
風向・風速西南西 4m/s
視程10km以上
全天の8割程度の雲 雲底高度 1520m
全天を覆う雲 雲底高度 3050m
21日8時 EDT ~ 21日11時 EDT に一時的に
視程10km以上
天気現象弱い雪
全天の4割程度の雲 雲底高度 610m
全天を覆う雲 雲底高度 1520m
21日11時 EDT から
風向・風速西南西 4m/s
視程10km以上
全天の8割程度の雲 雲底高度 910m
全天を覆う雲 雲底高度 1520m
21日11時 EDT ~ 21日17時 EDT に一時的に
視程8050m
天気現象弱いしゅう雪
全天の8割程度の雲 雲底高度 610m
全天を覆う雲 雲底高度 1220m
21日17時 EDT から
風向・風速南西 3m/s
視程10km以上
全天の4割程度の雲 雲底高度 610m
全天の8割程度の雲 雲底高度 1830m
21日17時 EDT ~ 22日8時 EDT に一時的に
視程10km以上
天気現象弱い雪
全天の8割程度の雲 雲底高度 610m
22日3時 EDT ~ 22日5時 EDT に徐々に
風向・風速南 3m/s
TAF CYFB 211138Z 2112/2212 25007KT P6SM BKN050 OVC100
TEMPO 2112/2115 P6SM -SN SCT020 OVC050
FM211500 25007KT P6SM BKN030 OVC050
TEMPO 2115/2121 5SM -SHSN BKN020 OVC040
FM212100 22005KT P6SM SCT020 BKN060
TEMPO 2121/2212 P6SM -SN BKN020
BECMG 2207/2209 17005KT RMK NXT FCST BY 211800Z